Latest Weather Observations for Sydney - Observatory Hill

IDN60901

Issued at 7:11 pm EST Tuesday 30 August 2016 (issued every 10 minutes, with the page automatically refreshed every 10 minutes)

About weather observations | Map of Sydney area stations | Latest observations for Sydney area | Other Formats
Station Details ID: 066062 Name: SYDNEY (OBSERVATORY HILL) Lat: -33.86 Lon: 151.21 Height: 39.0 m
Data from the previous 72 hours. | See also: Recent months at Sydney - Observatory Hill

* Apparent temperature (App Temp) for Sydney - Observatory Hill is calculated using temperature observations collected at Sydney - Observatory Hill and wind observations collected at Fort Denison, as wind observations are not currently provided for Sydney - Observatory Hill.

Date/Time
EST
Temp
°C
App
Temp
°C
Dew
Point
°C
Rel
Hum
%
Delta-T
°C
Wind Press
QNH
hPa
Press
MSL
hPa
Rain since
9am
mm
Dir  Spd
km/h
Gust
km/h
Spd
kts
Gust
kts
30/07:00pm 18.6 16.2 12.8 69 3.2 NNE 17 - 9 - 1022.9 1022.9 0.0
30/06:30pm 18.6 15.7 12.8 69 3.3 NNE 20 - 11 - 1022.8 1022.8 0.0
30/06:00pm 18.8 16.3 12.3 66 3.6 NNE 17 - 9 - 1022.7 1022.7 0.0
30/05:30pm 18.5 16.1 12.5 68 3.3 NNE 17 - 9 - 1022.5 1022.5 0.0
30/05:00pm 18.6 17.1 11.9 65 3.7 ENE 11 - 6 - 1022.5 1022.5 0.0
30/04:30pm 18.7 16.8 11.8 64 3.8 ENE 13 - 7 - 1022.4 1022.4 0.0
30/04:00pm 19.1 17.1 11.4 61 4.2 ENE 13 - 7 - 1022.4 1022.4 0.0
30/03:30pm 19.8 17.5 11.8 60 4.4 ENE 15 - 8 - 1022.6 1022.6 0.0
30/03:00pm 19.6 17.4 12.1 62 4.2 ENE 15 - 8 - 1023.1 1023.1 0.0
30/02:30pm 18.8 16.0 11.4 62 4.1 NE 17 - 9 - 1023.4 1023.4 0.0
30/02:00pm 18.7 15.9 11.3 62 4.0 ENE 17 - 9 - 1023.6 1023.6 0.0
30/01:30pm 18.7 16.6 11.3 62 4.0 ENE 13 - 7 - 1023.9 1023.9 0.0
30/01:00pm 18.6 16.5 11.2 62 4.0 E 13 - 7 - 1024.4 1024.4 0.0
30/12:30pm 18.1 16.9 9.5 57 4.5 ESE 6 - 3 - 1025.1 1025.1 0.0
30/12:00pm 18.5 17.6 10.8 61 4.1 WNW 6 - 3 - 1025.4 1025.4 0.0
30/11:30am 16.7 14.4 8.9 60 4.0 W 11 - 6 - 1026.1 1026.1 0.0
30/11:00am 16.4 13.5 9.6 64 3.5 W 15 - 8 - 1026.1 1026.1 0.0
30/10:30am 15.3 12.1 8.5 64 3.4 W 15 - 8 - 1026.4 1026.4 0.0
30/10:00am 14.6 12.2 8.5 67 3.1 W 11 - 6 - 1026.4 1026.4 0.0
30/09:30am 14.0 11.2 8.6 70 2.7 W 13 - 7 - 1026.7 1026.7 0.0
30/09:00am 13.8 10.3 8.6 71 2.6 W 17 - 9 - 1026.9 1026.9 0.0
30/08:30am 12.8 9.3 8.7 76 2.1 W 17 - 9 - 1027.0 1027.0 0.0
30/08:00am 12.4 9.9 8.1 75 2.1 W 11 - 6 - 1026.5 1026.5 0.0
30/07:30am 12.2 9.0 8.5 78 1.8 W 15 - 8 - 1026.8 1026.8 0.0
30/07:00am 11.6 9.5 8.3 80 1.6 W 9 - 5 - 1026.4 1026.4 0.0
30/06:30am 10.9 8.8 8.1 83 1.4 W 9 - 5 - 1026.6 1026.6 0.0
30/06:00am 10.9 8.4 8.0 82 1.4 W 11 - 6 - 1026.6 1026.6 0.0
30/05:30am 11.1 7.5 8.3 83 1.4 W 17 - 9 - 1026.4 1026.4 0.0
30/05:00am 11.3 9.3 8.5 83 1.4 WNW 9 - 5 - 1025.9 1025.9 0.0
30/04:30am 11.5 8.7 8.5 82 1.5 W 13 - 7 - 1025.9 1025.9 0.0
30/04:00am 11.9 8.8 8.7 81 1.6 W 15 - 8 - 1025.6 1025.6 0.0
30/03:30am 12.2 10.2 8.7 79 1.7 WNW 9 - 5 - 1025.1 1025.1 0.0
30/03:00am 12.4 10.0 8.5 77 1.9 W 11 - 6 - 1025.2 1025.2 0.0
30/02:30am 12.5 9.8 9.0 79 1.8 W 13 - 7 - 1025.6 1025.6 0.0
30/02:00am 12.7 10.8 9.0 78 1.9 W 9 - 5 - 1025.7 1025.7 0.0
30/01:30am 13.2 12.0 9.5 78 1.9 WNW 6 - 3 - 1025.8 1025.8 0.0
30/01:00am 13.3 11.1 9.2 76 2.1 WNW 11 - 6 - 1026.6 1026.6 0.0
30/12:30am 13.6 12.6 8.7 72 2.5 WNW 4 - 2 - 1026.4 1026.4 0.0
30/12:00am 14.0 11.2 8.6 70 2.7 W 13 - 7 - 1026.8 1026.8 0.0
 
Date/Time
EST
Temp
°C
App
Temp
°C
Dew
Point
°C
Rel
Hum
%
Delta-T
°C
Wind Press
QNH
hPa
Press
MSL
hPa
Rain since
9am
mm
Dir  Spd
km/h
Gust
km/h
Spd
kts
Gust
kts
29/11:30pm 14.5 11.4 8.9 69 2.8 W 15 - 8 - 1026.9 1026.9 0.0
29/11:00pm 15.8 14.6 9.7 67 3.2 NNW 6 - 3 - 1026.4 1026.4 0.0
29/10:30pm 15.5 14.3 9.6 68 3.1 NNE 6 - 3 - 1026.2 1026.2 0.0
29/10:00pm 15.7 14.8 9.4 66 3.2 NNW 4 - 2 - 1026.4 1026.4 0.0
29/09:30pm 15.7 14.3 8.9 64 3.5 N 6 - 3 - 1026.0 1026.0 0.0
29/09:00pm 15.8 14.4 8.8 63 3.6 N 6 - 3 - 1026.3 1026.3 0.0
29/08:30pm 15.7 14.5 8.2 61 3.8 NE 4 - 2 - 1026.0 1026.0 0.0
29/08:00pm 15.9 14.6 7.7 58 4.1 N 4 - 2 - 1026.2 1026.2 0.0
29/07:30pm 15.9 14.5 7.1 56 4.4 NE 4 - 2 - 1026.2 1026.2 0.0
29/07:00pm 16.2 14.3 6.9 54 4.6 ENE 6 - 3 - 1026.0 1026.0 0.0
29/06:30pm 16.5 13.2 6.3 51 5.0 NNE 13 - 7 - 1025.6 1025.6 0.0
29/06:00pm 16.8 14.2 6.3 50 5.1 NNE 9 - 5 - 1025.6 1025.6 0.0
29/05:30pm 17.0 14.9 6.5 50 5.2 ENE 7 - 4 - 1025.6 1025.6 0.0
29/05:00pm 17.2 14.0 6.7 50 5.2 ENE 13 - 7 - 1025.3 1025.3 0.0
29/04:30pm 17.6 14.3 6.5 48 5.5 E 13 - 7 - 1024.9 1024.9 0.0
29/04:00pm 18.6 14.5 2.4 34 7.4 ENE 13 - 7 - 1025.0 1025.0 0.0
29/03:30pm 18.7 16.0 2.9 35 7.3 W 6 - 3 - 1024.9 1024.9 0.0
29/03:00pm 18.1 15.0 3.6 38 6.8 W 9 - 5 - 1025.0 1025.0 0.0
29/02:30pm 18.3 14.9 4.1 39 6.7 W 11 - 6 - 1025.2 1025.2 0.0
29/02:00pm 18.3 15.4 4.8 41 6.5 W 9 - 5 - 1025.1 1025.1 0.0
29/01:30pm 18.8 15.9 4.9 40 6.7 W 9 - 5 - 1025.1 1025.1 0.0
29/01:00pm 18.9 15.8 5.4 41 6.6 W 11 - 6 - 1025.5 1025.5 0.0
29/12:30pm 17.6 14.6 5.9 46 5.7 W 11 - 6 - 1025.9 1025.9 0.0
29/12:00pm 15.6 12.5 5.5 51 4.8 W 11 - 6 - 1025.9 1025.9 0.0
29/11:30am 15.1 12.3 5.3 52 4.6 W 9 - 5 - 1026.2 1026.2 0.0
29/11:00am 14.6 10.6 5.1 53 4.4 W 15 - 8 - 1027.1 1027.1 0.0
29/10:30am 13.9 9.8 6.3 60 3.6 WNW 17 - 9 - 1027.3 1027.3 0.0
29/10:00am 13.4 9.4 5.1 57 3.8 WNW 15 - 8 - 1027.4 1027.4 0.0
29/09:30am 13.2 9.3 5.4 59 3.7 WNW 15 - 8 - 1027.3 1027.3 0.0
29/09:00am 12.9 8.5 4.6 57 3.8 W 17 - 9 - 1027.4 1027.4 0.0
29/08:30am 12.6 8.5 4.3 57 3.8 W 15 - 8 - 1027.1 1027.1 0.0
29/08:00am 11.7 7.3 4.7 62 3.2 W 17 - 9 - 1027.1 1027.1 0.0
29/07:30am 9.8 5.4 4.6 70 2.3 W 17 - 9 - 1026.5 1026.5 0.0
29/07:00am 9.4 5.4 5.0 74 2.0 WNW 15 - 8 - 1026.1 1026.1 0.0
29/06:30am 8.5 4.9 4.9 78 1.6 W 13 - 7 - 1025.6 1025.6 0.0
29/06:00am 8.5 3.6 5.3 80 1.4 W 20 - 11 - 1025.4 1025.4 0.0
29/05:30am 8.6 3.9 5.2 79 1.5 W 19 - 10 - 1025.1 1025.1 0.0
29/05:00am 8.8 4.0 5.4 79 1.5 W 20 - 11 - 1024.8 1024.8 0.0
29/04:30am 9.1 4.9 5.5 78 1.6 W 17 - 9 - 1024.3 1024.3 0.0
29/04:00am 9.4 5.0 4.6 72 2.1 W 17 - 9 - 1024.2 1024.2 0.0
29/03:30am 9.8 5.0 4.8 71 2.2 W 19 - 10 - 1023.9 1023.9 0.0
29/03:00am 9.9 5.2 5.3 73 2.1 W 19 - 10 - 1023.8 1023.8 0.0
29/02:30am 10.1 5.4 5.1 71 2.3 W 19 - 10 - 1023.9 1023.9 0.0
29/02:00am 10.3 6.0 5.3 71 2.3 W 17 - 9 - 1023.9 1023.9 0.0
29/01:30am 10.7 6.0 5.3 69 2.5 W 19 - 10 - 1024.2 1024.2 0.0
29/01:00am 11.0 6.7 5.3 68 2.6 W 17 - 9 - 1023.9 1023.9 0.0
29/12:30am 11.3 6.9 5.0 65 2.9 W 17 - 9 - 1024.0 1024.0 0.0
29/12:00am 11.6 8.0 4.8 63 3.1 W 13 - 7 - 1023.5 1023.5 0.0
 
Date/Time
EST
Temp
°C
App
Temp
°C
Dew
Point
°C
Rel
Hum
%
Delta-T
°C
Wind Press
QNH
hPa
Press
MSL
hPa
Rain since
9am
mm
Dir  Spd
km/h
Gust
km/h
Spd
kts
Gust
kts
28/11:30pm 11.8 8.8 5.9 67 2.8 W 11 - 6 - 1023.5 1023.5 0.0
28/11:00pm 12.0 9.0 5.9 66 2.8 W 11 - 6 - 1023.6 1023.6 0.0
28/10:30pm 12.6 9.4 5.3 61 3.4 W 11 - 6 - 1023.7 1023.7 0.0
28/10:00pm 12.3 8.5 5.7 64 3.1 W 15 - 8 - 1023.7 1023.7 0.0
28/09:30pm 12.3 8.9 6.1 66 2.9 WNW 13 - 7 - 1023.8 1023.8 0.0
28/09:00pm 12.7 10.6 6.5 66 2.9 WNW 7 - 4 - 1023.6 1023.6 0.0
28/08:30pm 12.8 10.6 6.2 64 3.1 WNW 7 - 4 - 1023.4 1023.4 0.0
28/08:00pm 13.8 12.2 6.2 60 3.6 N 4 - 2 - 1023.1 1023.1 0.0
28/07:30pm 14.6 12.7 4.9 52 4.5 N 4 - 2 - 1022.8 1022.8 0.0
28/07:00pm 15.0 12.7 5.0 51 4.7 NNW 6 - 3 - 1022.7 1022.7 0.0
28/06:30pm 15.8 14.0 5.4 50 5.0 ENE 4 - 2 - 1022.3 1022.3 0.0
28/06:00pm 15.5 12.7 3.3 44 5.5 ESE 7 - 4 - 1022.0 1022.0 0.0
28/05:30pm 16.5 12.8 2.2 38 6.4 ESE 11 - 6 - 1021.8 1021.8 0.0
28/05:00pm 16.8 13.4 2.0 37 6.6 SSW 9 - 5 - 1021.5 1021.5 0.0
28/04:30pm 16.9 13.2 2.1 37 6.7 SSE 11 - 6 - 1021.2 1021.2 0.0
28/04:00pm 17.6 13.5 2.0 35 7.0 SE 13 - 7 - 1021.1 1021.1 0.0
28/03:30pm 18.9 14.9 2.7 34 7.5 SE 13 - 7 - 1020.8 1020.8 0.0
28/03:00pm 18.0 13.2 2.7 36 7.0 ESE 17 - 9 - 1020.9 1020.9 0.0
28/02:30pm 18.2 12.9 2.1 34 7.3 ESE 19 - 10 - 1020.5 1020.5 0.0
28/02:00pm 18.3 13.5 2.6 35 7.2 ESE 17 - 9 - 1020.5 1020.5 0.0
28/01:30pm 18.4 13.3 3.1 36 7.1 ESE 19 - 10 - 1020.5 1020.5 0.0
28/01:00pm 20.0 15.8 1.9 30 8.3 WSW 13 - 7 - 1020.7 1020.7 0.0
28/12:30pm 19.6 15.7 1.1 29 8.3 W 11 - 6 - 1020.9 1020.9 0.0
28/12:00pm 18.2 13.5 2.9 36 7.0 WNW 17 - 9 - 1021.4 1021.4 0.0
28/11:30am 17.1 12.6 2.3 37 6.7 W 15 - 8 - 1021.9 1021.9 0.0
28/11:00am 15.5 11.2 3.3 44 5.5 WNW 15 - 8 - 1022.3 1022.3 0.0
28/10:30am 14.3 8.9 2.5 45 5.2 W 20 - 11 - 1022.7 1022.7 0.0
28/10:00am 13.9 7.9 3.1 48 4.8 W 24 - 13 - 1022.8 1022.8 0.0
28/09:30am 12.9 6.8 2.7 50 4.5 W 24 - 13 - 1022.8 1022.8 0.0
28/09:00am 12.2 6.4 2.1 50 4.3 W 22 - 12 - 1022.9 1022.9 0.0
28/08:30am 12.0 7.1 1.9 50 4.3 W 17 - 9 - 1023.0 1023.0 0.0
28/08:00am 10.4 4.7 3.0 60 3.2 W 22 - 12 - 1023.0 1023.0 0.0
28/07:30am 9.3 3.9 2.2 61 3.0 W 20 - 11 - 1022.9 1022.9 0.0
28/07:00am 8.5 3.6 2.1 64 2.7 WNW 17 - 9 - 1022.7 1022.7 0.0
28/06:30am 8.9 3.7 2.5 64 2.7 W 19 - 10 - 1022.0 1022.0 0.0
28/06:00am 8.8 3.0 2.2 63 2.8 W 22 - 12 - 1021.6 1021.6 0.0
28/05:30am 9.0 3.8 2.3 63 2.8 W 19 - 10 - 1021.7 1021.7 0.0
28/05:00am 9.3 3.0 1.7 59 3.1 W 24 - 13 - 1021.7 1021.7 0.0
28/04:30am 9.6 3.3 1.8 58 3.3 W 24 - 13 - 1021.3 1021.3 0.0
28/04:00am 9.1 3.9 2.4 63 2.8 W 19 - 10 - 1021.1 1021.1 0.0
28/03:30am 8.8 4.1 3.4 69 2.3 W 17 - 9 - 1021.0 1021.0 0.0
28/03:00am 9.1 4.5 3.5 68 2.4 WNW 17 - 9 - 1021.0 1021.0 0.0
28/02:30am 9.4 5.4 2.7 63 2.9 WNW 13 - 7 - 1021.2 1021.2 0.0
28/02:00am 9.6 5.2 2.9 63 2.9 W 15 - 8 - 1021.5 1021.5 0.0
28/01:30am 9.8 4.7 2.9 62 3.0 W 19 - 10 - 1021.8 1021.8 0.0
28/01:00am 10.1 4.8 2.9 61 3.1 W 20 - 11 - 1021.8 1021.8 0.0
28/12:30am 10.9 5.7 2.7 57 3.5 W 19 - 10 - 1021.9 1021.9 0.0
28/12:00am 11.4 7.1 3.2 57 3.6 W 15 - 8 - 1021.8 1021.8 0.0
 
Date/Time
EST
Temp
°C
App
Temp
°C
Dew
Point
°C
Rel
Hum
%
Delta-T
°C
Wind Press
QNH
hPa
Press
MSL
hPa
Rain since
9am
mm
Dir  Spd
km/h
Gust
km/h
Spd
kts
Gust
kts
27/11:30pm 11.4 7.6 5.7 68 2.6 W 15 - 8 - 1021.7 1021.7 0.0
27/11:00pm 11.5 7.6 7.0 74 2.1 WNW 17 - 9 - 1021.8 1021.8 0.0
27/10:30pm 11.8 8.3 7.1 73 2.3 W 15 - 8 - 1021.6 1021.6 0.0
27/10:00pm 12.1 9.3 6.8 70 2.5 WNW 11 - 6 - 1021.6 1021.6 0.0
27/09:30pm 12.7 10.0 7.2 69 2.7 NNW 11 - 6 - 1021.3 1021.3 0.0
27/09:00pm 13.1 11.3 7.1 67 2.9 NNW 6 - 3 - 1021.2 1021.2 0.0
27/08:30pm 14.0 10.9 7.3 64 3.3 N 13 - 7 - 1021.4 1021.4 0.0
27/08:00pm 14.7 11.3 7.7 63 3.5 N 15 - 8 - 1021.2 1021.2 0.0
27/07:30pm 15.1 11.3 7.6 61 3.7 N 17 - 9 - 1021.0 1021.0 0.0

Latest Capital City Observations: Canberra | Sydney | Melbourne | Brisbane | Adelaide | Perth | Hobart | Darwin

Other Formats:

Comma delimited format used in spreadsheet applications
http://www.bom.gov.au/fwo/IDN60901/IDN60901.94768.axf

JavaScript Object Notation format (JSON) in row-major order
http://www.bom.gov.au/fwo/IDN60901/IDN60901.94768.json